Time;durP1;ratioP1;P1;durP2;ratioP2;P2;SDS_P1;SDS_P2;PMS_P1;PMS_P2;Temp;Humidity;BMP_temperature;BMP_pressure;BME280_temperature;BME280_humidity;BME280_pressure;Samples;Min_cycle;Max_cycle;Signal;HPM_P1;HPM_P2
2022/04/22 00:01:15;;;;;;;7.78;2.55;;;6.80;99.90;;;;;;4998094;28;20069;-69
2022/04/22 00:03:40;;;;;;;9.82;2.55;;;6.90;99.90;;;;;;4997086;28;20105;-70
2022/04/22 00:06:06;;;;;;;7.90;3.00;;;6.90;99.90;;;;;;4997823;28;20022;-69
2022/04/22 00:08:31;;;;;;;8.68;3.10;;;6.90;99.90;;;;;;4997385;28;20027;-69
2022/04/22 00:13:43;;;;;;;3.85;2.15;;;6.90;99.90;;;;;;4997581;28;20088;-69
2022/04/22 00:16:08;;;;;;;9.82;2.60;;;6.90;99.90;;;;;;4996735;28;20022;-69
2022/04/22 00:18:34;;;;;;;4.22;2.35;;;6.90;99.90;;;;;;4995767;28;20030;-69
2022/04/22 00:21:00;;;;;;;6.15;2.97;;;6.80;99.90;;;;;;4997113;28;20117;-70
2022/04/22 00:23:27;;;;;;;7.07;2.58;;;6.80;99.90;;;;;;4997117;28;20030;-69
2022/04/22 00:25:54;;;;;;;7.72;2.97;;;6.70;99.90;;;;;;4997265;28;20029;-69
2022/04/22 00:28:20;;;;;;;2.97;2.42;;;6.70;99.90;;;;;;4997908;28;20109;-69
2022/04/22 00:30:47;;;;;;;9.75;2.80;;;6.90;99.90;;;;;;4996307;28;20535;-69
2022/04/22 00:33:13;;;;;;;8.23;2.95;;;6.70;99.90;;;;;;4997155;28;20053;-69
2022/04/22 00:35:39;;;;;;;5.50;2.70;;;6.60;99.90;;;;;;4996829;28;20061;-69
2022/04/22 00:38:04;;;;;;;5.65;2.90;;;6.60;99.90;;;;;;4996704;28;20501;-69
2022/04/22 00:40:30;;;;;;;4.95;2.30;;;6.60;99.90;;;;;;4996214;28;20418;-70
2022/04/22 00:42:55;;;;;;;4.90;2.45;;;6.50;99.90;;;;;;4996720;28;20464;-71
2022/04/22 00:45:21;;;;;;;11.27;3.03;;;6.40;99.90;;;;;;4996178;28;20030;-70
2022/04/22 00:47:47;;;;;;;4.97;2.58;;;6.30;99.90;;;;;;4996695;28;20466;-69
2022/04/22 00:50:13;;;;;;;4.47;2.97;;;6.30;99.90;;;;;;4996055;28;20030;-69
2022/04/22 00:52:39;;;;;;;6.13;2.67;;;6.30;99.90;;;;;;4995359;28;20026;-69
2022/04/22 00:55:06;;;;;;;9.70;3.10;;;6.20;99.90;;;;;;4996051;28;20052;-70
2022/04/22 00:57:33;;;;;;;5.43;2.42;;;6.20;99.90;;;;;;4996435;28;20036;-69
2022/04/22 00:59:58;;;;;;;10.32;3.05;;;6.20;99.90;;;;;;4996352;28;20058;-69
2022/04/22 01:02:24;;;;;;;6.57;2.65;;;6.20;99.90;;;;;;4996412;28;20054;-69
2022/04/22 01:10:20;;;;;;;6.00;2.55;;;6.00;99.90;;;;;;4996374;28;20166;-69
2022/04/22 01:12:46;;;;;;;4.55;3.15;;;6.00;99.90;;;;;;4996366;28;20065;-70
2022/04/22 01:15:11;;;;;;;4.80;2.35;;;6.00;99.90;;;;;;4995826;28;20065;-69
2022/04/22 01:17:37;;;;;;;5.63;2.58;;;6.10;99.90;;;;;;4996006;28;20026;-69
2022/04/22 01:20:04;;;;;;;4.15;2.65;;;6.20;99.90;;;;;;4995938;28;20098;-70
2022/04/22 01:22:30;;;;;;;6.65;2.72;;;6.30;99.90;;;;;;4994559;28;20033;-69
2022/04/22 01:25:00;;;;;;;9.02;2.53;;;6.40;99.90;;;;;;4995432;28;20382;-70
2022/04/22 01:27:29;;;;;;;4.70;2.70;;;6.40;99.90;;;;;;4996287;28;20379;-69
2022/04/22 01:30:00;;;;;;;4.47;2.88;;;6.50;99.90;;;;;;4995322;28;20038;-70
2022/04/22 01:32:29;;;;;;;8.57;3.10;;;6.50;99.90;;;;;;4996157;28;20058;-69
2022/04/22 01:34:54;;;;;;;7.05;3.28;;;6.50;99.90;;;;;;4995733;28;20022;-70
2022/04/22 01:37:20;;;;;;;7.05;2.97;;;6.50;99.90;;;;;;4995348;28;20022;-70
2022/04/22 01:39:46;;;;;;;4.22;2.60;;;6.40;99.90;;;;;;4994494;28;20026;-70
2022/04/22 01:42:11;;;;;;;5.85;2.13;;;6.60;99.90;;;;;;4995666;28;20030;-69
2022/04/22 01:44:37;;;;;;;12.48;3.53;;;6.60;99.90;;;;;;4995107;28;20026;-70
2022/04/22 01:47:06;;;;;;;10.75;3.10;;;6.60;99.90;;;;;;4995498;28;20034;-70
2022/04/22 01:49:31;;;;;;;6.75;3.05;;;6.60;99.90;;;;;;4995394;28;20026;-70
2022/04/22 01:51:57;;;;;;;4.07;2.85;;;6.60;99.90;;;;;;4995314;28;20110;-70
2022/04/22 01:54:23;;;;;;;3.78;2.40;;;6.60;99.90;;;;;;4995038;28;20058;-70
2022/04/22 01:56:48;;;;;;;5.85;2.95;;;6.50;99.90;;;;;;4995196;28;20026;-69
2022/04/22 01:59:14;;;;;;;4.38;2.67;;;6.40;99.90;;;;;;4995263;28;20368;-70
2022/04/22 02:01:39;;;;;;;12.38;3.65;;;6.40;99.90;;;;;;4995566;28;20417;-70
2022/04/22 02:04:05;;;;;;;9.40;3.50;;;6.30;99.90;;;;;;4995241;28;20018;-69
2022/04/22 02:06:31;;;;;;;7.63;3.15;;;6.30;99.90;;;;;;4994894;28;20033;-70
2022/04/22 02:08:57;;;;;;;8.23;3.38;;;6.20;99.90;;;;;;4995076;28;20041;-69
2022/04/22 02:11:22;;;;;;;5.45;2.97;;;6.20;99.90;;;;;;4995420;28;20514;-70
2022/04/22 02:13:48;;;;;;;10.07;3.20;;;6.40;99.90;;;;;;4994936;28;20023;-70
2022/04/22 02:16:13;;;;;;;7.50;2.90;;;6.40;99.90;;;;;;4994576;28;20027;-70
2022/04/22 02:18:42;;;;;;;7.50;3.33;;;6.40;99.90;;;;;;4994979;28;20038;-70
2022/04/22 02:21:09;;;;;;;13.48;3.55;;;6.30;99.90;;;;;;4995154;28;20018;-70
2022/04/22 02:23:35;;;;;;;7.13;3.05;;;6.20;99.90;;;;;;4995728;28;20026;-70
2022/04/22 02:26:02;;;;;;;9.85;3.75;;;6.30;99.90;;;;;;4995017;28;20019;-69
2022/04/22 02:28:35;;;;;;;10.30;4.07;;;6.20;99.90;;;;;;4994754;28;20034;-70
2022/04/22 02:31:06;;;;;;;6.95;3.50;;;6.30;99.90;;;;;;4994660;28;20046;-70
2022/04/22 02:33:33;;;;;;;11.00;3.40;;;6.30;99.90;;;;;;4994957;28;20027;-70
2022/04/22 02:35:59;;;;;;;7.25;3.33;;;6.30;99.90;;;;;;4995032;28;20033;-70
2022/04/22 02:38:26;;;;;;;7.25;3.40;;;6.30;99.90;;;;;;4995159;28;20533;-70
2022/04/22 02:46:19;;;;;;;8.57;3.35;;;6.00;99.90;;;;;;4994553;28;19916;-69
2022/04/22 02:48:45;;;;;;;8.00;3.63;;;6.00;99.90;;;;;;4994460;28;20030;-69
2022/04/22 02:51:10;;;;;;;6.07;3.38;;;5.90;99.90;;;;;;4994441;28;20062;-69
2022/04/22 02:53:36;;;;;;;7.70;4.20;;;5.90;99.90;;;;;;4994056;28;20062;-70
2022/04/22 02:56:02;;;;;;;9.30;4.20;;;5.80;99.90;;;;;;4994650;28;20124;-70
2022/04/22 02:58:28;;;;;;;6.55;3.35;;;5.80;99.90;;;;;;4994297;28;20023;-70
2022/04/22 03:00:53;;;;;;;9.70;3.80;;;5.80;99.90;;;;;;4994313;28;20113;-70
2022/04/22 03:03:19;;;;;;;12.25;4.30;;;5.70;99.90;;;;;;4994583;28;20088;-70
2022/04/22 03:05:44;;;;;;;11.98;4.15;;;5.70;99.90;;;;;;4994793;28;20022;-70
2022/04/22 03:08:10;;;;;;;5.75;3.92;;;5.70;99.90;;;;;;4993831;28;20026;-69
2022/04/22 03:10:36;;;;;;;5.10;4.10;;;5.80;99.90;;;;;;4994300;28;20081;-70
2022/04/22 03:13:03;;;;;;;9.23;4.25;;;5.80;99.90;;;;;;4994303;28;20032;-70
2022/04/22 03:15:30;;;;;;;10.02;4.18;;;5.80;99.90;;;;;;4994482;28;20485;-70
2022/04/22 03:17:55;;;;;;;8.32;4.28;;;5.80;99.90;;;;;;4994271;28;20113;-70
2022/04/22 03:20:21;;;;;;;8.18;4.30;;;5.90;99.90;;;;;;4993601;28;20057;-69
2022/04/22 03:22:46;;;;;;;9.43;4.35;;;5.90;99.90;;;;;;4992975;28;20019;-69
2022/04/22 03:25:12;;;;;;;11.02;4.85;;;5.90;99.90;;;;;;4994115;28;20029;-69
2022/04/22 03:27:37;;;;;;;11.25;5.05;;;5.90;99.90;;;;;;4994325;28;20025;-70
2022/04/22 03:30:04;;;;;;;10.38;5.03;;;5.80;99.90;;;;;;4994013;28;20392;-70
2022/04/22 03:32:30;;;;;;;12.60;4.43;;;5.80;99.90;;;;;;4992407;28;20022;-70
2022/04/22 03:34:56;;;;;;;10.13;4.78;;;5.70;99.90;;;;;;4994307;28;20534;-70
2022/04/22 03:37:21;;;;;;;10.88;4.93;;;5.70;99.90;;;;;;4994073;28;20105;-70
2022/04/22 03:39:47;;;;;;;13.48;4.68;;;5.60;99.90;;;;;;4992697;28;20054;-70
2022/04/22 03:42:13;;;;;;;14.90;4.85;;;5.50;99.90;;;;;;4993695;28;20103;-70
2022/04/22 03:44:39;;;;;;;6.65;4.07;;;5.40;99.90;;;;;;4994040;28;20046;-69
2022/04/22 03:47:07;;;;;;;9.38;4.93;;;5.40;99.90;;;;;;4993989;28;20057;-69
2022/04/22 03:49:33;;;;;;;9.25;4.50;;;5.30;99.90;;;;;;4993882;28;20386;-70
2022/04/22 03:51:59;;;;;;;8.60;4.68;;;5.40;99.90;;;;;;4993587;28;20019;-69
2022/04/22 03:54:25;;;;;;;7.45;5.03;;;5.40;99.90;;;;;;4996998;28;20130;-70
2022/04/22 03:59:35;;;;;;;10.02;5.07;;;5.40;99.90;;;;;;4997614;28;20553;-70
2022/04/22 04:02:04;;;;;;;10.38;5.00;;;5.30;99.90;;;;;;4995741;28;20054;-70
2022/04/22 04:04:30;;;;;;;8.60;5.00;;;5.30;99.90;;;;;;4997431;28;20092;-70
2022/04/22 04:06:55;;;;;;;10.80;4.60;;;5.40;99.90;;;;;;4997592;28;20018;-69
2022/04/22 04:17:40;;;;;;;8.30;4.90;;;5.80;99.90;;;;;;4997400;28;20077;-69
2022/04/22 04:25:35;;;;;;;7.78;3.80;;;6.20;99.90;;;;;;4997541;28;20033;-70
2022/04/22 04:28:02;;;;;;;13.82;6.43;;;6.30;99.90;;;;;;4996988;28;20022;-69
2022/04/22 04:30:28;;;;;;;7.82;4.50;;;6.30;99.90;;;;;;4994959;28;20035;-70
2022/04/22 04:32:54;;;;;;;8.63;4.43;;;6.30;99.90;;;;;;4996964;28;20525;-70
2022/04/22 04:35:19;;;;;;;14.70;5.22;;;6.40;99.90;;;;;;4997222;28;20114;-70
2022/04/22 04:37:45;;;;;;;8.50;5.13;;;6.50;99.90;;;;;;4996496;28;20419;-71
2022/04/22 04:40:11;;;;;;;13.48;5.68;;;6.50;99.90;;;;;;4996644;28;20449;-70
2022/04/22 04:42:36;;;;;;;12.05;5.05;;;6.40;99.90;;;;;;4996794;28;20522;-70
2022/04/22 04:45:03;;;;;;;12.68;5.10;;;6.40;99.90;;;;;;4997079;28;20070;-71
2022/04/22 04:47:29;;;;;;;14.80;6.07;;;6.40;99.90;;;;;;4997799;28;20037;-71
2022/04/22 04:49:55;;;;;;;12.02;5.78;;;6.50;99.90;;;;;;4997139;28;20030;-70
2022/04/22 04:52:20;;;;;;;9.82;5.38;;;6.50;99.90;;;;;;4994861;28;20026;-70
2022/04/22 04:54:48;;;;;;;7.90;5.45;;;6.50;99.90;;;;;;4996826;28;20088;-70
2022/04/22 04:57:13;;;;;;;7.35;5.00;;;6.40;99.90;;;;;;4997022;28;20018;-70
2022/04/22 04:59:39;;;;;;;9.55;5.63;;;6.50;99.90;;;;;;4996404;28;20398;-71
2022/04/22 05:02:04;;;;;;;12.15;5.70;;;6.40;99.90;;;;;;4996033;28;20018;-69
2022/04/22 05:04:30;;;;;;;10.55;5.88;;;6.40;99.90;;;;;;4994502;28;20463;-70
2022/04/22 05:06:56;;;;;;;9.15;5.82;;;6.50;99.90;;;;;;4996301;28;20018;-70
2022/04/22 05:09:22;;;;;;;12.43;5.78;;;6.50;99.90;;;;;;4996081;28;20495;-71
2022/04/22 05:11:48;;;;;;;8.90;5.78;;;6.60;99.90;;;;;;4996625;28;20062;-71
2022/04/22 05:14:13;;;;;;;14.20;6.43;;;6.60;99.90;;;;;;4996137;28;20050;-71
2022/04/22 05:16:39;;;;;;;9.95;5.22;;;6.60;99.90;;;;;;4996726;28;20479;-71
2022/04/22 05:19:04;;;;;;;7.50;5.38;;;6.70;99.90;;;;;;4995885;28;20070;-72
2022/04/22 05:21:30;;;;;;;12.95;5.85;;;6.70;99.90;;;;;;4996115;28;20054;-71
2022/04/22 05:23:55;;;;;;;12.95;5.80;;;6.80;99.90;;;;;;4995627;28;20042;-71
2022/04/22 05:26:23;;;;;;;8.52;5.45;;;6.90;99.90;;;;;;4995122;28;20022;-71
2022/04/22 05:28:49;;;;;;;18.88;5.32;;;7.00;99.90;;;;;;4995890;28;20077;-71
2022/04/22 05:33:59;;;;;;;14.77;5.40;;;7.10;99.90;;;;;;4996284;28;20069;-73
2022/04/22 05:36:24;;;;;;;7.35;5.00;;;7.20;99.90;;;;;;4995448;28;20057;-73
2022/04/22 05:38:52;;;;;;;7.57;4.75;;;7.30;99.90;;;;;;4996066;28;20129;-74
2022/04/22 05:41:18;;;;;;;9.35;4.70;;;7.40;99.90;;;;;;4996233;28;20029;-73
2022/04/22 05:43:44;;;;;;;10.10;5.43;;;7.60;99.90;;;;;;4995323;28;20097;-74
2022/04/22 05:46:09;;;;;;;13.35;5.32;;;7.70;99.90;;;;;;4994671;28;20492;-73
2022/04/22 05:48:35;;;;;;;10.85;5.45;;;7.80;99.90;;;;;;4995731;28;20037;-72
2022/04/22 05:51:00;;;;;;;14.38;4.97;;;7.90;99.90;;;;;;4995946;28;20383;-74
2022/04/22 05:53:26;;;;;;;7.43;4.57;;;8.00;99.90;;;;;;4995207;28;20057;-74
2022/04/22 05:55:52;;;;;;;10.52;4.95;;;8.10;99.90;;;;;;4995522;28;20372;-74
2022/04/22 05:58:17;;;;;;;10.82;4.13;;;8.20;99.90;;;;;;4995572;28;20084;-74
2022/04/22 06:00:43;;;;;;;8.48;4.50;;;8.40;99.90;;;;;;4995395;28;20503;-74
2022/04/22 06:03:08;;;;;;;11.32;3.88;;;8.50;99.90;;;;;;4995287;28;20018;-73
2022/04/22 06:05:35;;;;;;;6.63;4.22;;;8.60;99.90;;;;;;4995674;28;20381;-72
2022/04/22 06:10:52;;;;;;;10.80;4.35;;;8.80;99.90;;;;;;4994672;28;20036;-73
2022/04/22 06:13:18;;;;;;;6.18;3.55;;;9.00;99.90;;;;;;4995330;28;20147;-74
2022/04/22 06:15:43;;;;;;;6.65;3.90;;;9.00;99.90;;;;;;4993853;28;20057;-73
2022/04/22 06:18:09;;;;;;;7.53;4.05;;;9.10;99.90;;;;;;4995088;28;20038;-73
2022/04/22 06:20:35;;;;;;;7.35;3.67;;;9.20;99.90;;;;;;4995145;28;20030;-74
2022/04/22 06:23:01;;;;;;;8.85;4.13;;;9.30;99.90;;;;;;4994619;28;20050;-73
2022/04/22 06:25:27;;;;;;;12.40;4.25;;;9.40;99.90;;;;;;4995094;28;20403;-73
2022/04/22 06:27:53;;;;;;;9.85;3.90;;;9.50;99.90;;;;;;4995204;28;20018;-74
2022/04/22 06:30:21;;;;;;;10.73;3.72;;;9.60;99.90;;;;;;4994801;28;20081;-74
2022/04/22 06:32:49;;;;;;;9.93;4.05;;;9.80;99.90;;;;;;4995177;28;20109;-74
2022/04/22 06:35:18;;;;;;;8.45;3.30;;;10.00;99.90;;;;;;4994873;28;20101;-74
2022/04/22 06:37:49;;;;;;;6.97;3.35;;;10.10;99.90;;;;;;4993224;28;20466;-74
2022/04/22 06:45:46;;;;;;;6.75;3.13;;;10.50;99.90;;;;;;4995082;28;20426;-73
2022/04/22 06:48:14;;;;;;;4.80;2.90;;;10.70;99.90;;;;;;4994266;28;20023;-73
2022/04/22 06:50:44;;;;;;;10.27;3.13;;;10.70;99.90;;;;;;4994639;28;20080;-74
2022/04/22 06:53:10;;;;;;;5.35;2.78;;;10.90;99.90;;;;;;4994939;28;20511;-74
2022/04/22 06:55:38;;;;;;;7.18;2.47;;;11.00;99.90;;;;;;4994118;28;20030;-73
2022/04/22 06:58:09;;;;;;;12.38;3.20;;;11.10;99.90;;;;;;4994470;28;20120;-73
2022/04/22 07:00:34;;;;;;;10.70;2.80;;;11.20;99.90;;;;;;4993365;28;20419;-73
2022/04/22 07:03:00;;;;;;;4.60;2.70;;;11.20;99.90;;;;;;4994720;28;20057;-73
2022/04/22 07:05:26;;;;;;;8.63;3.13;;;11.40;99.90;;;;;;4995236;28;20033;-73
2022/04/22 07:07:52;;;;;;;4.30;2.83;;;11.40;99.90;;;;;;4994814;28;20031;-74
2022/04/22 07:10:18;;;;;;;20.42;4.05;;;11.50;99.90;;;;;;4994126;28;20084;-73
2022/04/22 07:12:44;;;;;;;7.50;2.58;;;11.60;99.90;;;;;;4994845;28;20031;-73
2022/04/22 07:15:10;;;;;;;5.80;3.08;;;11.80;99.90;;;;;;4994776;28;20053;-73
2022/04/22 07:17:38;;;;;;;12.70;3.25;;;11.80;99.90;;;;;;4994529;28;20130;-73
2022/04/22 07:20:09;;;;;;;4.93;3.30;;;11.90;99.90;;;;;;4994351;28;20037;-73
2022/04/22 07:22:36;;;;;;;6.28;3.33;;;11.80;99.90;;;;;;4994738;28;20475;-73
2022/04/22 07:25:02;;;;;;;6.30;3.40;;;12.00;99.90;;;;;;4994030;28;20023;-73
2022/04/22 07:27:30;;;;;;;3.88;2.70;;;12.20;99.90;;;;;;4994857;28;20038;-74
2022/04/22 07:29:58;;;;;;;7.97;3.25;;;12.40;99.90;;;;;;4998095;28;20030;-74
2022/04/22 07:32:25;;;;;;;6.75;3.03;;;12.40;99.90;;;;;;4998398;28;20086;-74
2022/04/22 07:34:51;;;;;;;21.48;3.88;;;12.50;99.90;;;;;;4998437;28;20030;-74
2022/04/22 07:37:17;;;;;;;4.10;2.47;;;12.60;99.90;;;;;;4997959;28;20096;-72
2022/04/22 07:39:43;;;;;;;3.08;2.50;;;12.50;99.90;;;;;;4997684;28;20097;-73
2022/04/22 07:42:14;;;;;;;5.53;3.22;;;12.60;99.90;;;;;;4998095;28;20109;-73
2022/04/22 07:47:29;;;;;;;6.35;3.40;;;12.80;99.90;;;;;;4997408;28;20057;-71
2022/04/22 07:49:54;;;;;;;10.05;2.97;;;13.00;99.90;;;;;;4997566;28;20046;-73
2022/04/22 07:52:20;;;;;;;2.67;2.40;;;13.10;99.90;;;;;;4997984;28;20030;-72
2022/04/22 07:54:46;;;;;;;7.05;2.50;;;13.00;99.90;;;;;;4997722;28;20027;-72
2022/04/22 07:57:11;;;;;;;10.02;2.53;;;13.10;99.90;;;;;;4997858;28;20057;-72
2022/04/22 07:59:37;;;;;;;18.45;3.33;;;13.30;99.90;;;;;;4997154;28;20018;-73
2022/04/22 08:02:03;;;;;;;5.10;2.58;;;13.60;99.90;;;;;;4997661;28;20022;-72
2022/04/22 08:04:29;;;;;;;8.55;3.10;;;13.80;99.90;;;;;;4997619;28;20022;-72
2022/04/22 08:06:54;;;;;;;5.95;2.10;;;14.10;99.90;;;;;;4997441;28;20033;-73
2022/04/22 08:09:20;;;;;;;4.95;2.25;;;14.10;99.90;;;;;;4997321;28;20026;-73
2022/04/22 08:11:46;;;;;;;5.72;2.45;;;14.10;99.90;;;;;;4996121;28;20057;-73
2022/04/22 08:14:12;;;;;;;11.48;2.92;;;14.20;99.90;;;;;;4996806;28;20102;-73
2022/04/22 08:16:38;;;;;;;7.93;2.25;;;14.30;99.90;;;;;;4997683;28;20364;-73
2022/04/22 08:19:04;;;;;;;10.02;2.75;;;14.40;99.90;;;;;;4997138;28;20113;-72
2022/04/22 08:21:33;;;;;;;5.03;2.65;;;14.60;99.90;;;;;;4997224;28;20058;-73
2022/04/22 08:24:02;;;;;;;12.63;2.78;;;14.70;99.90;;;;;;4997285;28;20085;-73
2022/04/22 08:26:31;;;;;;;12.40;3.00;;;14.70;99.90;;;;;;4996506;28;20065;-73
2022/04/22 08:28:56;;;;;;;15.32;3.05;;;14.80;99.90;;;;;;4996978;28;20061;-72
2022/04/22 08:31:22;;;;;;;5.00;2.05;;;14.80;99.90;;;;;;4996990;28;20418;-73
2022/04/22 08:33:49;;;;;;;5.05;2.90;;;14.90;99.90;;;;;;4996987;28;20045;-72
2022/04/22 08:36:15;;;;;;;11.60;2.67;;;15.00;99.90;;;;;;4997151;28;20387;-73
2022/04/22 08:38:40;;;;;;;5.80;2.53;;;15.10;99.90;;;;;;4996295;28;20026;-73
2022/04/22 08:41:09;;;;;;;5.07;2.30;;;15.10;99.90;;;;;;4995575;28;20074;-72
2022/04/22 08:43:36;;;;;;;5.07;2.38;;;15.00;99.90;;;;;;4997057;28;20033;-73
2022/04/22 08:46:02;;;;;;;9.52;2.38;;;15.20;99.90;;;;;;4996431;28;20022;-73
2022/04/22 08:51:15;;;;;;;8.15;2.20;;;15.70;99.90;;;;;;4996815;28;20097;-72
2022/04/22 08:53:44;;;;;;;8.70;2.53;;;15.80;99.90;;;;;;4996529;28;20034;-72
2022/04/22 08:56:11;;;;;;;7.55;2.75;;;15.90;99.90;;;;;;4996831;28;20050;-72
2022/04/22 08:58:37;;;;;;;11.07;2.80;;;15.80;99.90;;;;;;4995947;28;20467;-72
2022/04/22 09:01:04;;;;;;;10.80;2.72;;;16.10;99.90;;;;;;4996648;28;20463;-72
2022/04/22 09:03:29;;;;;;;8.40;2.50;;;16.00;99.90;;;;;;4995211;28;20080;-72
2022/04/22 09:05:56;;;;;;;6.35;3.13;;;16.10;99.90;;;;;;4996507;28;20097;-72
2022/04/22 09:08:24;;;;;;;7.47;2.35;;;16.30;99.90;;;;;;4996257;28;20475;-72
2022/04/22 09:10:54;;;;;;;9.75;2.78;;;16.50;99.90;;;;;;4995720;28;20042;-73
2022/04/22 09:13:27;;;;;;;12.68;3.33;;;16.60;99.90;;;;;;4996704;28;20582;-73
2022/04/22 09:15:54;;;;;;;6.32;2.40;;;16.70;99.90;;;;;;4998151;28;20042;-73
2022/04/22 09:18:24;;;;;;;7.20;3.38;;;16.60;99.90;;;;;;4997750;28;20037;-73
2022/04/22 09:20:50;;;;;;;13.23;2.90;;;16.50;99.90;;;;;;4996571;28;20391;-72
2022/04/22 09:23:35;;;;;;;7.57;2.70;;;16.40;99.90;;;;;;4996239;28;20029;-72
2022/04/22 09:26:02;;;;;;;7.45;2.80;;;16.20;99.90;;;;;;4994281;28;20162;-72
2022/04/22 09:28:29;;;;;;;15.55;3.47;;;15.90;99.90;;;;;;4996277;28;20034;-73
2022/04/22 09:31:02;;;;;;;10.15;2.90;;;15.90;99.90;;;;;;4995883;28;20042;-73
2022/04/22 09:33:44;;;;;;;10.75;2.63;;;15.90;99.90;;;;;;4995906;28;20030;-72
2022/04/22 09:45:07;;;;;;;14.45;3.08;;;16.40;99.90;;;;;;4995666;28;20500;-73
2022/04/22 09:47:33;;;;;;;13.63;4.13;;;16.30;99.90;;;;;;4995612;28;20487;-73
2022/04/22 09:50:37;;;;;;;12.68;3.10;;;16.30;99.90;;;;;;4995873;28;20049;-73
2022/04/22 09:53:03;;;;;;;8.13;3.20;;;16.40;99.90;;;;;;4995703;28;20114;-73
2022/04/22 09:55:34;;;;;;;11.95;2.83;;;17.00;99.90;;;;;;4995436;28;20022;-73
2022/04/22 09:58:00;;;;;;;6.68;3.42;;;17.30;99.90;;;;;;4994925;28;20114;-73
2022/04/22 10:00:30;;;;;;;8.18;3.25;;;17.50;99.90;;;;;;4995845;28;20483;-73
2022/04/22 10:02:56;;;;;;;13.13;3.15;;;17.80;99.90;;;;;;4995289;28;20153;-73
2022/04/22 10:05:32;;;;;;;11.00;3.33;;;17.80;99.90;;;;;;4995513;28;20065;-72
2022/04/22 10:08:01;;;;;;;4.97;3.05;;;17.90;99.90;;;;;;4995457;28;20023;-72
2022/04/22 10:10:39;;;;;;;13.45;3.35;;;17.90;99.90;;;;;;4994564;28;20089;-72
2022/04/22 10:13:07;;;;;;;11.95;2.97;;;18.10;99.90;;;;;;4995241;28;20054;-72
2022/04/22 10:15:37;;;;;;;6.53;3.85;;;18.10;99.90;;;;;;4994934;28;20034;-71
2022/04/22 10:18:04;;;;;;;9.85;3.53;;;18.20;99.90;;;;;;4995153;28;20031;-72
2022/04/22 10:20:30;;;;;;;8.40;3.83;;;18.30;99.90;;;;;;4994824;28;20025;-72
2022/04/22 10:22:57;;;;;;;19.83;3.38;;;18.30;99.90;;;;;;4987267;28;20510;-72
2022/04/22 10:25:23;;;;;;;19.63;3.60;;;18.30;99.90;;;;;;4983588;28;20092;-71
2022/04/22 10:27:51;;;;;;;13.85;4.00;;;18.10;99.90;;;;;;4984483;28;20391;-72
2022/04/22 10:30:17;;;;;;;7.13;3.58;;;18.00;99.90;;;;;;4985284;28;20117;-71
2022/04/22 10:32:47;;;;;;;16.55;4.10;;;17.90;99.90;;;;;;4986174;28;20390;-71
2022/04/22 10:35:13;;;;;;;18.75;4.28;;;18.00;99.90;;;;;;4985732;28;20023;-72
2022/04/22 10:37:41;;;;;;;41.75;5.35;;;17.70;99.90;;;;;;4980436;28;20489;-71
2022/04/22 10:40:18;;;;;;;15.60;4.28;;;17.40;99.90;;;;;;4988898;28;20399;-71
2022/04/22 10:42:43;;;;;;;9.05;4.45;;;17.40;99.90;;;;;;4984984;28;20026;-72
2022/04/22 10:47:55;;;;;;;13.85;3.67;;;18.10;99.90;;;;;;4984932;28;20510;-71
2022/04/22 10:50:33;;;;;;;18.42;4.53;;;18.20;99.90;;;;;;4984104;28;20106;-71
2022/04/22 10:53:23;;;;;;;4.80;3.38;;;18.30;99.90;;;;;;4982155;28;20026;-71
2022/04/22 10:55:52;;;;;;;9.52;4.60;;;18.40;99.90;;;;;;4986347;28;20099;-72
2022/04/22 10:58:19;;;;;;;18.73;4.53;;;18.10;99.90;;;;;;4980521;28;20558;-72
2022/04/22 11:00:50;;;;;;;19.88;5.50;;;18.40;99.90;;;;;;4984404;28;20026;-72
2022/04/22 11:03:20;;;;;;;9.13;4.20;;;18.90;99.90;;;;;;4990292;28;20018;-73
2022/04/22 11:05:47;;;;;;;10.00;4.15;;;18.90;99.90;;;;;;4985676;28;20054;-73
2022/04/22 11:08:18;;;;;;;6.25;3.65;;;18.70;99.90;;;;;;4984983;28;20035;-72
2022/04/22 11:10:46;;;;;;;18.25;4.57;;;18.40;99.90;;;;;;4981396;28;20034;-72
2022/04/22 11:13:32;;;;;;;15.00;4.28;;;18.50;99.90;;;;;;4980777;28;20479;-72
2022/04/22 11:16:14;;;;;;;12.45;5.18;;;18.80;99.90;;;;;;4986677;28;20041;-73
2022/04/22 11:18:43;;;;;;;18.13;3.88;;;18.80;99.90;;;;;;4985476;28;20023;-72
2022/04/22 11:21:37;;;;;;;21.98;4.47;;;19.00;99.90;;;;;;4993674;28;20018;-72
2022/04/22 11:24:15;;;;;;;7.32;3.67;;;18.20;99.90;;;;;;4994198;28;20057;-72
2022/04/22 11:26:42;;;;;;;7.75;4.60;;;18.20;99.90;;;;;;4994371;28;20042;-72
2022/04/22 11:29:10;;;;;;;11.10;4.20;;;18.50;99.90;;;;;;4994113;28;20041;-72
2022/04/22 11:31:36;;;;;;;13.40;4.32;;;18.30;99.90;;;;;;4993680;28;20026;-71
2022/04/22 11:34:11;;;;;;;11.07;4.75;;;18.40;99.90;;;;;;4993996;28;20031;-72
2022/04/22 11:36:44;;;;;;;14.75;4.60;;;18.80;99.90;;;;;;4993725;28;20106;-71
2022/04/22 11:39:15;;;;;;;17.90;4.65;;;18.50;99.90;;;;;;4993911;28;20062;-72
2022/04/22 11:41:57;;;;;;;11.50;4.93;;;18.50;99.90;;;;;;4992535;28;20081;-72
2022/04/22 11:44:23;;;;;;;9.73;4.38;;;18.80;99.90;;;;;;4994110;28;20018;-71
2022/04/22 11:46:51;;;;;;;19.70;5.50;;;19.10;99.90;;;;;;4993891;28;20022;-71
2022/04/22 11:49:16;;;;;;;15.70;4.88;;;19.80;99.90;;;;;;4993883;28;20026;-72
2022/04/22 11:51:42;;;;;;;19.75;5.10;;;20.30;99.90;;;;;;4994145;28;20098;-72
2022/04/22 11:54:08;;;;;;;11.80;4.82;;;20.90;99.90;;;;;;4993611;28;20065;-72
2022/04/22 11:56:36;;;;;;;15.27;4.22;;;21.40;99.90;;;;;;4994084;28;20073;-72
2022/04/22 11:59:02;;;;;;;10.70;4.63;;;21.60;99.90;;;;;;4994195;28;20034;-72
2022/04/22 12:09:57;;;;;;;11.18;4.72;;;22.20;99.90;;;;;;4994187;28;20060;-72
2022/04/22 12:12:24;;;;;;;18.10;4.88;;;21.50;99.90;;;;;;4993699;28;20113;-72
2022/04/22 12:15:02;;;;;;;12.95;5.28;;;21.60;99.90;;;;;;4996188;28;20083;-72
2022/04/22 12:17:28;;;;;;;12.00;5.65;;;22.30;99.90;;;;;;4997092;28;20030;-72
2022/04/22 12:19:54;;;;;;;14.60;4.72;;;22.70;99.90;;;;;;4996551;28;20030;-72
2022/04/22 12:22:21;;;;;;;18.63;4.95;;;22.80;99.90;;;;;;4997227;28;20410;-72
2022/04/22 12:25:08;;;;;;;16.73;4.65;;;23.10;99.90;;;;;;4996984;28;20371;-72
2022/04/22 12:27:34;;;;;;;15.15;5.45;;;23.40;99.90;;;;;;4996609;28;20022;-72
2022/04/22 12:30:02;;;;;;;12.70;4.82;;;23.50;99.90;;;;;;4996667;28;20049;-71
2022/04/22 12:32:28;;;;;;;15.05;4.75;;;23.60;99.90;;;;;;4997173;28;20022;-71
2022/04/22 12:35:10;;;;;;;12.30;4.82;;;23.70;99.90;;;;;;4996805;28;20041;-71
2022/04/22 12:37:36;;;;;;;11.18;4.72;;;24.30;99.10;;;;;;4996384;28;20022;-71
2022/04/22 12:40:09;;;;;;;13.73;5.38;;;24.70;98.40;;;;;;4996912;28;20085;-70
2022/04/22 12:42:36;;;;;;;11.10;4.97;;;24.30;97.20;;;;;;4996641;28;20014;-71
2022/04/22 12:53:28;;;;;;;15.23;5.05;;;24.40;97.00;;;;;;4966376;28;20038;-70
2022/04/22 12:56:02;;;;;;;11.30;5.32;;;24.60;97.00;;;;;;4996595;28;20500;-70
2022/04/22 12:58:28;;;;;;;17.08;5.47;;;24.60;95.70;;;;;;4995963;28;20030;-70
2022/04/22 13:00:53;;;;;;;12.43;5.65;;;25.00;96.40;;;;;;4996467;28;20387;-70
2022/04/22 13:03:21;;;;;;;10.63;4.80;;;25.20;95.80;;;;;;4996358;28;20359;-70
2022/04/22 13:05:50;;;;;;;10.27;5.20;;;25.30;94.00;;;;;;4996575;28;20015;-71
2022/04/22 13:08:15;;;;;;;20.77;5.90;;;25.20;95.90;;;;;;4995742;28;20027;-70
2022/04/22 13:10:42;;;;;;;8.52;4.50;;;25.60;94.50;;;;;;4996112;28;20037;-70
2022/04/22 13:13:08;;;;;;;10.85;4.88;;;25.70;92.90;;;;;;4996192;28;20054;-70
2022/04/22 13:15:34;;;;;;;11.48;4.50;;;25.80;94.00;;;;;;4996081;28;20029;-70
2022/04/22 13:18:00;;;;;;;10.18;3.88;;;25.20;91.80;;;;;;4995785;28;20030;-70
2022/04/22 13:20:26;;;;;;;13.98;5.85;;;25.20;93.30;;;;;;4996011;28;20015;-70
2022/04/22 13:22:51;;;;;;;21.35;5.47;;;25.30;92.70;;;;;;4995941;28;20429;-70
2022/04/22 13:25:18;;;;;;;13.00;5.30;;;25.30;93.10;;;;;;4995894;28;20022;-69
2022/04/22 13:27:44;;;;;;;16.52;5.63;;;24.10;92.80;;;;;;4995685;28;20482;-69
2022/04/22 13:30:11;;;;;;;19.80;5.13;;;23.60;93.90;;;;;;4995345;28;20423;-69
2022/04/22 13:32:38;;;;;;;15.25;4.90;;;22.70;95.90;;;;;;4995895;28;20026;-70
2022/04/22 13:35:07;;;;;;;8.82;4.35;;;22.60;96.60;;;;;;4995943;28;20112;-70
2022/04/22 13:37:33;;;;;;;11.95;4.65;;;22.60;95.50;;;;;;4995947;28;20458;-70
2022/04/22 13:39:59;;;;;;;10.05;3.70;;;23.20;96.80;;;;;;4994668;28;20084;-69
2022/04/22 13:42:24;;;;;;;13.00;4.45;;;23.90;94.60;;;;;;4995346;28;20022;-69
2022/04/22 13:53:04;;;;;;;9.23;4.00;;;26.00;90.60;;;;;;4995682;28;20081;-70
2022/04/22 13:55:30;;;;;;;7.22;3.30;;;26.00;90.70;;;;;;4995315;28;20065;-70
2022/04/22 13:57:56;;;;;;;9.13;3.70;;;25.80;90.40;;;;;;4995567;28;20467;-70
2022/04/22 14:00:22;;;;;;;17.17;5.00;;;24.90;90.40;;;;;;4995160;28;20485;-70
2022/04/22 14:02:48;;;;;;;10.63;4.88;;;24.00;92.80;;;;;;4995433;28;20026;-70
2022/04/22 14:05:20;;;;;;;9.90;5.78;;;23.70;95.40;;;;;;4995239;28;20103;-70
2022/04/22 14:07:50;;;;;;;7.70;4.63;;;23.50;94.60;;;;;;4994752;28;20022;-69
2022/04/22 14:10:17;;;;;;;14.25;5.43;;;24.00;93.10;;;;;;4995409;28;20030;-69
2022/04/22 14:12:43;;;;;;;10.40;5.25;;;24.10;92.80;;;;;;4995426;28;20026;-69